Terminal Aerodrome Forecast
Issued by NWS Shreveport, LA

Current Version | Previous Version | Text Only | Print | Product List | Glossary On
Versions: 1 2 3 4 5 6 7 8 9 10 11 12 13 14 15 16 17 18 19 20 21 22 23 24 25
527
FTUS44 KSHV 310521 AAA
TAFMLU
TAF AMD
KMLU 310521Z 3105/0106 VRB03KT P6SM VCSH SCT050 BKN140 OVC250
     FM310900 00000KT P6SM SCT140 SCT250
      TEMPO 3109/3113 3SM BR
     FM311300 VRB03KT P6SM SCT250
     FM311500 24004KT P6SM FEW030 SCT250
     FM311900 18006KT P6SM SCT045 SCT250
     FM010000 17004KT P6SM FEW050 SCT250=

USA.gov is the U.S. government's official web portal to all federal, state and local government web resources and services.